Airport View

Enter AWOS ICAO identifier for current METAR.

ex. KFNL

KVNY 251351Z 00000KT 10SM CLR 18/11 A2993 RMK AO2 SLP125 T01780106

25 Sep 2020 14:10

Phone: 818-904-9213

Other Area AWOS: KWHP - KBUR - KSMO - KCQT

TAF AMD KVNY 251334Z 2514/2612 VRB03KT P6SM SKC FM252000 17010KT P6SM SKC FM260300 13007KT P6SM SKC